Details for Delta Airlines at KMSP




Go Back


Latest METAR
Local Time

KMSP 250453Z 12011KT 10SM FEW095 OVC160 21/18 A2989 RMK AO2 LTG DSNT E TSB13E28 SLP116 TS MOV NE T02060183

25/05/2018, 00:04:47

Description
Results
Delta Airlines Logo
Number of Pilots based at KMSP
0 Pilots Based here
Number of Delta Airlines Flights Departed from KMSP
3 Flights Departed
Number of Delta Airlines Flights Arrived at KMSP
3 Flights Arrived
Number of Delta Airlines Schedules Departing from KMSP
550 Schedules
Number of Delta Airlines Schedules Arriving at KMSP
578 Schedules
Number of Delta Airlines Schedules Departing from KMSP availible today
340 Schedules Today
Number of Delta Airlines Schedules Arriving at KMSP availible today
330 Schedules Today
Average Landing Rate at KMSP
-28 fpm
Delta Airlines Average Landing Rate at KMSP
-28 fpm
Total Fuel Purchased at KMSP by Delta Airlines
18,171.37 kgs / 40,060.60 lbs

Pilots Based at KMSP


Pilot ID
Pilot Name
Pilot Rank
No. of Flights
No. of Flying Hours
There are no pilots assigned to this hub!   Will you be the first?
Content